Cadzand, Netherlands

2:47 AM CEST on July 30, 2016 (GMT +0200)
Nieuwehovendijk | | Change Station

Elev 6 ft 51.38 °N, 3.44 °E | Updated 2 minutes ago

Mostly Cloudy
Mostly Cloudy
60.1 °F
Feels Like 60.1 °F
N
1.2
Wind Variable Wind from West
Gusts 6.2 mph

Today
High -- | Low -- °F
--% Chance of Precip.
Yesterday
High -- | Low -- °F
Precip. -- in
Pressure 29.89 in
Visibility 6.2 miles
Clouds Scattered Clouds 1200 ft
Mostly Cloudy 19000 ft
Dew Point 58 °F
Humidity 93%
Rainfall 0.00 in
Snow Depth Not available.
6:08 AM 9:36 PM
Waning Crescent, 17% visible
METAR EBFN 300025Z 23006KT 9999 SCT012 BKN190 15/14 Q1012 GRN
Pressure 29.89 in
Visibility 6.2 miles
Clouds Scattered Clouds 1200 ft
Mostly Cloudy 19000 ft
Dew Point 58 °F
Humidity 93%
Rainfall 0.00 in
Snow Depth Not available.
6:08 AM 9:36 PM
Waning Crescent, 17% visible
METAR EBFN 300025Z 23006KT 9999 SCT012 BKN190 15/14 Q1012 GRN

10-Day Weather Forecast

×

Almanac

Astronomy

Jul. 30, 2016 Rise Set
Actual Time
Civil Twilight
Nautical Twilight
Astronomical Twilight
Moon
Length of Visible Light
Length of Day
Tomorrow will be .
, % of the Moon is Illuminated

Today's Extremes

Country Highs Country Lows

Community

WunderPhotos

Upload Photos

1,928,457 photos uploaded!

WunderBlog® & News

Nearby

Air Quality

  Air Quality AQ Index Pollutant
Not available.

Snow Depth

Station Depth Elevation

Earthquake Activity

City Distance Mag. Time & Date
Minimum magnitude displayed is 2.5.

Coastal Water Temperatures

Place Temperature

Stations

Nearby Weather Stations

Station Location Temp. Windchill Dew Point Humidity Wind Precip. Elev Updated Type